createdAt,value
2023-01-04T00:02:31.972Z,80.29
2023-01-04T00:05:18.855Z,80.04
2023-01-04T00:08:05.451Z,79.86
2023-01-04T00:10:51.666Z,79.71
2023-01-04T00:13:38.375Z,79.94
2023-01-04T00:16:27.520Z,80.27
2023-01-04T00:19:14.217Z,80.07
2023-01-04T00:22:00.399Z,80.16
2023-01-04T00:24:46.951Z,79.46
2023-01-04T00:27:34.071Z,80.41
2023-01-04T00:30:20.776Z,80.18
2023-01-04T00:33:07.492Z,80.02
2023-01-04T00:35:54.313Z,80.00
2023-01-04T00:38:42.968Z,80.33
2023-01-04T00:41:57.598Z,80.25
2023-01-04T00:44:36.546Z,80.47
2023-01-04T00:47:23.666Z,80.20
2023-01-04T00:50:10.375Z,79.94
2023-01-04T00:52:57.075Z,79.76
2023-01-04T00:55:44.007Z,79.65
2023-01-04T00:58:30.291Z,80.06
2023-01-04T01:01:17.248Z,80.43
2023-01-04T01:04:04.947Z,80.52
2023-01-04T01:06:52.585Z,80.62
2023-01-04T01:09:38.963Z,80.82
2023-01-04T01:12:25.274Z,81.01
2023-01-04T01:15:12.483Z,81.16
2023-01-04T01:17:59.136Z,81.32
2023-01-04T01:20:46.300Z,81.10
2023-01-04T01:23:32.914Z,80.54
2023-01-04T01:26:21.974Z,80.35
2023-01-04T01:29:08.606Z,80.49
2023-01-04T01:31:55.743Z,80.47
2023-01-04T01:34:42.228Z,80.58
2023-01-04T01:37:28.911Z,80.58
2023-01-04T01:40:15.852Z,80.58
2023-01-04T01:43:02.756Z,80.50
2023-01-04T01:45:52.885Z,80.37
2023-01-04T01:48:39.880Z,80.30
2023-01-04T01:51:27.162Z,79.95
2023-01-04T01:54:20.880Z,80.30
2023-01-04T01:57:08.304Z,80.67
2023-01-04T01:59:57.280Z,80.83
2023-01-04T02:03:18.391Z,80.94
2023-01-04T02:06:16.841Z,81.76
2023-01-04T02:09:04.048Z,81.72
2023-01-04T02:11:50.570Z,81.52
2023-01-04T02:14:36.747Z,81.84
2023-01-04T02:17:32.267Z,81.45
2023-01-04T02:20:22.235Z,81.26
2023-01-04T02:23:40.140Z,81.43
2023-01-04T02:26:44.921Z,81.72
2023-01-04T02:29:40.316Z,81.73
2023-01-04T02:32:51.242Z,81.47
2023-01-04T02:35:47.499Z,81.89
2023-01-04T02:39:04.046Z,82.16
2023-01-04T02:41:54.375Z,82.79
2023-01-04T02:44:53.018Z,82.70
2023-01-04T02:47:58.121Z,82.35
2023-01-04T02:50:59.679Z,81.85
2023-01-04T02:53:46.559Z,81.72
2023-01-04T02:56:58.383Z,81.83
2023-01-04T02:59:50.443Z,82.14
2023-01-04T03:03:30.931Z,82.24
2023-01-04T03:06:24.483Z,82.22
2023-01-04T03:09:19.342Z,82.10
2023-01-04T03:12:29.365Z,81.95
2023-01-04T03:15:46.330Z,81.38
2023-01-04T03:18:43.633Z,81.53
2023-01-04T03:21:31.317Z,81.95
2023-01-04T03:24:36.851Z,81.97
2023-01-04T03:27:42.339Z,81.71
2023-01-04T03:30:49.332Z,81.83
2023-01-04T03:33:55.284Z,81.74
2023-01-04T03:36:47.199Z,81.90
2023-01-04T03:39:55.478Z,82.03
2023-01-04T03:43:08.586Z,81.91
2023-01-04T03:46:18.230Z,81.77
2023-01-04T03:49:19.726Z,81.55
2023-01-04T03:52:07.979Z,81.29
2023-01-04T03:54:56.765Z,81.29
2023-01-04T03:57:45.020Z,81.26
2023-01-04T04:00:31.842Z,81.23
2023-01-04T04:03:18.620Z,81.27
2023-01-04T04:06:24.473Z,81.39
2023-01-04T04:09:10.842Z,81.70
2023-01-04T04:11:58.059Z,81.66
2023-01-04T04:14:44.644Z,81.60
2023-01-04T04:17:31.119Z,81.60
2023-01-04T04:20:17.615Z,81.61
2023-01-04T04:23:04.291Z,81.80
2023-01-04T04:25:50.672Z,81.93
2023-01-04T04:28:37.273Z,82.19
2023-01-04T04:31:23.836Z,81.98
2023-01-04T04:34:10.985Z,81.77
2023-01-04T04:36:57.698Z,81.42
2023-01-04T04:39:44.389Z,81.40
2023-01-04T04:42:30.924Z,82.15
2023-01-04T04:45:17.437Z,82.38
2023-01-04T04:48:04.511Z,81.82
2023-01-04T04:50:51.387Z,81.25
2023-01-04T04:53:37.697Z,81.01
2023-01-04T04:56:24.574Z,81.24
2023-01-04T04:59:11.142Z,81.19
2023-01-04T05:01:57.929Z,81.32
2023-01-04T05:04:44.328Z,81.09
2023-01-04T05:07:31.206Z,80.79
2023-01-04T05:10:17.832Z,80.64
2023-01-04T05:13:06.427Z,80.68
2023-01-04T05:15:54.413Z,80.66
2023-01-04T05:18:40.974Z,80.89
2023-01-04T05:21:27.805Z,82.32
2023-01-04T05:24:14.863Z,82.79
2023-01-04T05:27:01.671Z,84.03
2023-01-04T05:30:06.758Z,82.54
2023-01-04T05:32:53.344Z,82.22
2023-01-04T05:35:39.857Z,83.83
2023-01-04T05:38:26.993Z,84.23
2023-01-04T05:41:32.995Z,82.91
2023-01-04T05:44:19.551Z,83.98
2023-01-04T05:47:09.682Z,84.23
2023-01-04T05:50:01.594Z,83.43
2023-01-04T05:52:49.551Z,83.87
2023-01-04T05:55:35.922Z,83.50
2023-01-04T05:58:22.413Z,83.06
2023-01-04T06:01:09.406Z,83.29
2023-01-04T06:03:56.492Z,83.90
2023-01-04T06:06:42.993Z,83.12
2023-01-04T06:09:29.825Z,82.82
2023-01-04T06:12:16.102Z,82.52
2023-01-04T06:15:03.386Z,82.97
2023-01-04T06:17:50.117Z,82.72
2023-01-04T06:20:36.855Z,83.38
2023-01-04T06:23:23.798Z,83.97
2023-01-04T06:26:10.666Z,83.86
2023-01-04T06:28:57.192Z,84.07
2023-01-04T06:31:44.619Z,84.16
2023-01-04T06:34:31.701Z,84.20
2023-01-04T06:37:18.272Z,83.79
2023-01-04T06:40:05.994Z,83.07
2023-01-04T06:42:52.565Z,82.36
2023-01-04T06:45:39.095Z,82.61
2023-01-04T06:48:25.451Z,83.04
2023-01-04T06:51:12.364Z,84.21
2023-01-04T06:53:59.005Z,84.99
2023-01-04T06:56:45.497Z,85.01
2023-01-04T06:59:32.494Z,84.14
2023-01-04T07:02:20.005Z,83.74
2023-01-04T07:05:07.293Z,83.52
2023-01-04T07:07:53.912Z,83.65
2023-01-04T07:10:40.730Z,83.31
2023-01-04T07:13:27.132Z,83.63
2023-01-04T07:16:13.726Z,83.77
2023-01-04T07:19:00.399Z,84.27
2023-01-04T07:21:47.006Z,84.29
2023-01-04T07:24:33.535Z,83.87
2023-01-04T07:27:20.488Z,83.84
2023-01-04T07:30:07.712Z,83.42
2023-01-04T07:32:55.144Z,83.35
2023-01-04T07:35:41.972Z,83.28
2023-01-04T07:38:28.517Z,82.72
2023-01-04T07:41:14.846Z,82.79
2023-01-04T07:44:01.556Z,82.63
2023-01-04T07:46:48.242Z,82.23
2023-01-04T07:49:34.897Z,81.89
2023-01-04T07:52:21.579Z,81.23
2023-01-04T07:55:08.564Z,80.54
2023-01-04T07:57:55.343Z,80.87
2023-01-04T08:00:41.809Z,80.11
2023-01-04T08:03:28.599Z,79.89
2023-01-04T08:06:16.542Z,79.70
2023-01-04T08:09:03.531Z,79.23
2023-01-04T08:11:50.362Z,78.68
2023-01-04T08:14:37.090Z,78.08
2023-01-04T08:17:24.082Z,77.66
2023-01-04T08:20:11.316Z,76.78
2023-01-04T08:22:58.030Z,75.60
2023-01-04T08:25:44.395Z,74.33
2023-01-04T08:28:32.206Z,72.05
2023-01-04T08:31:23.369Z,70.81
2023-01-04T08:34:10.361Z,70.69
2023-01-04T08:36:57.471Z,70.41
2023-01-04T08:39:48.720Z,71.72
2023-01-04T08:42:35.945Z,71.82
2023-01-04T08:45:22.276Z,72.90
2023-01-04T08:48:08.588Z,73.34
2023-01-04T08:50:59.342Z,73.18
2023-01-04T08:53:45.949Z,73.37
2023-01-04T08:56:32.697Z,73.61
2023-01-04T08:59:19.601Z,73.83
2023-01-04T09:02:21.064Z,73.74
2023-01-04T09:05:08.117Z,74.16
2023-01-04T09:07:55.001Z,74.37
2023-01-04T09:10:41.808Z,74.36
2023-01-04T09:13:28.090Z,74.72
2023-01-04T09:16:19.595Z,74.43
2023-01-04T09:19:06.404Z,74.46
2023-01-04T09:21:53.149Z,74.69
2023-01-04T09:24:39.824Z,74.43
2023-01-04T09:27:26.729Z,74.21
2023-01-04T09:30:13.921Z,74.49
2023-01-04T09:33:00.415Z,74.20
2023-01-04T09:35:47.033Z,74.18
2023-01-04T09:38:34.854Z,73.89
2023-01-04T09:41:29.529Z,73.95
2023-01-04T09:44:54.553Z,73.27
2023-01-04T09:47:41.081Z,73.07
2023-01-04T09:50:32.262Z,72.11
2023-01-04T09:53:25.666Z,71.09
2023-01-04T09:56:22.045Z,70.70
2023-01-04T09:59:14.441Z,71.16
2023-01-04T10:02:12.472Z,70.23
2023-01-04T10:05:00.370Z,70.23
2023-01-04T10:07:47.154Z,69.42
2023-01-04T10:10:49.249Z,68.89
2023-01-04T10:13:57.021Z,68.45
2023-01-04T10:17:28.115Z,68.39
2023-01-04T10:23:47.261Z,66.71
2023-01-04T10:26:39.808Z,65.65
2023-01-04T10:29:27.160Z,64.58
2023-01-04T10:32:20.564Z,64.37
2023-01-04T10:35:18.575Z,64.79
2023-01-04T10:38:13.462Z,65.13
2023-01-04T10:41:02.331Z,64.63
2023-01-04T10:44:11.204Z,65.36
2023-01-04T10:47:08.799Z,65.45
2023-01-04T10:49:57.202Z,64.44
2023-01-04T10:52:48.485Z,64.41
2023-01-04T10:56:23.822Z,65.16
2023-01-04T10:59:15.265Z,64.81
2023-01-04T11:02:09.841Z,64.87
2023-01-04T11:05:03.451Z,65.10
2023-01-04T11:08:07.807Z,64.76
2023-01-04T11:11:02.631Z,64.99
2023-01-04T11:13:49.862Z,64.79
2023-01-04T11:16:37.423Z,64.88
2023-01-04T11:19:23.776Z,65.27
2023-01-04T11:22:22.222Z,65.21
2023-01-04T11:28:44.700Z,64.88
2023-01-04T11:31:49.158Z,65.62
2023-01-04T11:34:49.752Z,65.04
2023-01-04T11:37:38.933Z,64.70
2023-01-04T11:40:28.167Z,65.06
2023-01-04T11:43:19.918Z,65.84
2023-01-04T11:46:18.410Z,66.21
2023-01-04T11:49:05.852Z,66.92
2023-01-04T11:51:52.877Z,67.42
2023-01-04T11:54:39.183Z,67.18
2023-01-04T11:57:25.877Z,67.54
2023-01-04T12:00:16.548Z,67.81
2023-01-04T12:03:25.407Z,68.06
2023-01-04T12:06:17.795Z,68.67
2023-01-04T12:09:05.318Z,69.50
2023-01-04T12:11:54.705Z,70.08
2023-01-04T12:14:47.946Z,68.27
2023-01-04T12:17:57.183Z,67.88
2023-01-04T12:20:43.899Z,66.63
2023-01-04T12:23:30.691Z,65.72
2023-01-04T12:26:18.095Z,65.79
2023-01-04T12:29:23.114Z,65.95
2023-01-04T12:32:12.683Z,65.80
2023-01-04T12:34:59.578Z,65.75
2023-01-04T12:37:49.506Z,65.86
2023-01-04T12:40:45.121Z,65.29
2023-01-04T12:43:43.096Z,66.31
2023-01-04T12:46:59.597Z,65.04
2023-01-04T12:50:00.629Z,65.01
2023-01-04T12:53:29.364Z,65.60
2023-01-04T12:56:03.333Z,66.71
2023-01-04T13:02:27.663Z,68.15
2023-01-04T13:08:23.610Z,69.36
2023-01-04T13:11:34.252Z,69.30
2023-01-04T13:14:28.129Z,69.82
2023-01-04T13:17:18.466Z,71.49
2023-01-04T13:20:19.988Z,72.53
2023-01-04T13:23:12.129Z,72.94
2023-01-04T13:26:27.810Z,73.50
2023-01-04T13:29:23.210Z,73.76
2023-01-04T13:32:24.992Z,73.70
2023-01-04T13:35:14.768Z,73.32
2023-01-04T13:38:01.598Z,72.96
2023-01-04T13:40:49.572Z,72.49
2023-01-04T13:43:54.303Z,72.46
2023-01-04T13:46:42.500Z,72.35
2023-01-04T13:49:29.120Z,72.64
2023-01-04T13:55:38.680Z,74.03
2023-01-04T13:58:27.745Z,74.27
2023-01-04T14:01:20.420Z,75.51
2023-01-04T14:04:14.983Z,75.33
2023-01-04T14:07:01.732Z,75.83
2023-01-04T14:09:53.869Z,76.36
2023-01-04T14:12:44.399Z,75.88
2023-01-04T14:15:33.889Z,75.94
2023-01-04T14:18:28.588Z,75.81
2023-01-04T14:21:17.723Z,76.30
2023-01-04T14:24:04.339Z,76.20
2023-01-04T14:26:50.679Z,76.59
2023-01-04T14:29:40.273Z,76.67
2023-01-04T14:32:27.118Z,76.96
2023-01-04T14:35:15.060Z,77.30
2023-01-04T14:38:07.185Z,77.88
2023-01-04T14:40:54.302Z,78.24
2023-01-04T14:44:07.335Z,78.99
2023-01-04T14:47:01.558Z,79.13
2023-01-04T14:49:48.563Z,79.37
2023-01-04T14:52:35.141Z,79.62
2023-01-04T14:55:23.480Z,79.40
2023-01-04T14:58:10.102Z,79.05
2023-01-04T15:00:56.488Z,79.42
2023-01-04T15:03:43.212Z,79.43
2023-01-04T15:06:30.132Z,79.75
2023-01-04T15:09:16.821Z,79.42
2023-01-04T15:12:03.290Z,79.07
2023-01-04T15:14:50.334Z,79.28
2023-01-04T15:17:36.875Z,79.43
2023-01-04T15:20:23.542Z,78.74
2023-01-04T15:23:10.161Z,78.93
2023-01-04T15:25:56.748Z,78.27
2023-01-04T15:28:43.475Z,78.29
2023-01-04T15:31:36.729Z,77.91
2023-01-04T15:34:25.549Z,77.32
2023-01-04T15:37:12.275Z,77.15
2023-01-04T15:40:02.676Z,76.89
2023-01-04T15:42:58.920Z,75.74
2023-01-04T15:45:45.582Z,75.63
2023-01-04T15:48:32.233Z,74.89
2023-01-04T15:51:18.607Z,74.26
2023-01-04T15:54:05.514Z,73.79
2023-01-04T15:56:52.354Z,73.98
2023-01-04T15:59:38.756Z,74.24
2023-01-04T16:02:25.723Z,74.23
2023-01-04T16:05:12.478Z,74.50
2023-01-04T16:07:59.194Z,73.90
2023-01-04T16:10:46.200Z,74.34
2023-01-04T16:13:33.236Z,73.75
2023-01-04T16:16:22.321Z,73.95
2023-01-04T16:19:09.533Z,74.28
2023-01-04T16:21:56.513Z,73.94
2023-01-04T16:27:49.678Z,74.94
2023-01-04T16:30:36.265Z,75.14
2023-01-04T16:33:23.322Z,75.50
2023-01-04T16:36:11.311Z,74.78
2023-01-04T16:38:58.201Z,75.40
2023-01-04T16:41:44.872Z,75.20
2023-01-04T16:44:31.365Z,74.70
2023-01-04T16:47:18.149Z,74.89
2023-01-04T16:50:07.286Z,74.95
2023-01-04T16:52:53.821Z,74.52
2023-01-04T16:55:40.433Z,74.58
2023-01-04T16:58:29.775Z,74.31
2023-01-04T17:01:18.814Z,74.52
2023-01-04T17:04:10.553Z,74.54
2023-01-04T17:06:58.448Z,74.80
2023-01-04T17:09:45.363Z,74.20
2023-01-04T17:12:48.751Z,74.31
2023-01-04T17:15:44.278Z,74.19
2023-01-04T17:18:31.703Z,74.14
2023-01-04T17:21:36.220Z,74.23
2023-01-04T17:24:23.126Z,74.14
2023-01-04T17:27:10.877Z,73.84
2023-01-04T17:29:57.718Z,74.36
2023-01-04T17:32:44.489Z,74.38
2023-01-04T17:35:31.408Z,73.86
2023-01-04T17:38:17.572Z,74.34
2023-01-04T17:41:31.144Z,75.11
2023-01-04T17:44:17.692Z,74.41
2023-01-04T17:47:04.479Z,74.50
2023-01-04T17:49:51.302Z,74.31
2023-01-04T17:52:39.481Z,74.14
2023-01-04T17:55:26.321Z,74.48
2023-01-04T17:58:13.248Z,74.07
2023-01-04T18:01:08.389Z,74.54
2023-01-04T18:03:58.837Z,74.23
2023-01-04T18:06:44.977Z,74.31
2023-01-04T18:09:31.682Z,73.95
2023-01-04T18:12:18.544Z,74.08
2023-01-04T18:15:06.590Z,73.86
2023-01-04T18:17:53.345Z,73.85
2023-01-04T18:20:41.093Z,73.30
2023-01-04T18:23:29.522Z,73.24
2023-01-04T18:26:17.243Z,73.37
2023-01-04T18:29:03.658Z,73.31
2023-01-04T18:31:50.089Z,73.28
2023-01-04T18:34:36.810Z,72.85
2023-01-04T18:37:23.334Z,72.87
2023-01-04T18:40:10.740Z,73.19
2023-01-04T18:42:57.259Z,73.04
2023-01-04T18:45:43.932Z,73.05
2023-01-04T18:48:30.664Z,73.68
2023-01-04T18:51:18.221Z,74.57
2023-01-04T18:54:06.535Z,74.97
2023-01-04T18:57:00.438Z,74.95
2023-01-04T18:59:50.338Z,74.83
2023-01-04T19:02:37.140Z,74.96
2023-01-04T19:05:25.653Z,74.57
2023-01-04T19:08:12.267Z,74.40
2023-01-04T19:10:59.176Z,74.36
2023-01-04T19:13:45.884Z,74.10
2023-01-04T19:16:32.714Z,74.04
2023-01-04T19:19:19.712Z,74.00
2023-01-04T19:22:06.534Z,73.51
2023-01-04T19:24:52.818Z,73.72
2023-01-04T19:27:39.836Z,73.53
2023-01-04T19:30:26.642Z,72.90
2023-01-04T19:33:13.850Z,73.12
2023-01-04T19:36:00.532Z,73.01
2023-01-04T19:38:47.365Z,73.06
2023-01-04T19:41:34.640Z,73.13
2023-01-04T19:44:21.200Z,73.13
2023-01-04T19:47:07.713Z,73.50
2023-01-04T19:49:54.623Z,73.56
2023-01-04T19:52:41.122Z,73.44
2023-01-04T19:55:31.617Z,73.88
2023-01-04T19:58:18.433Z,73.54
2023-01-04T20:01:05.766Z,73.70
2023-01-04T20:03:53.147Z,73.74
2023-01-04T20:06:39.980Z,73.53
2023-01-04T20:09:27.753Z,73.82
2023-01-04T20:12:14.798Z,73.86
2023-01-04T20:15:01.854Z,73.87
2023-01-04T20:17:48.532Z,73.71
2023-01-04T20:20:35.203Z,73.55
2023-01-04T20:23:22.062Z,73.37
2023-01-04T20:26:19.025Z,73.79
2023-01-04T20:29:05.895Z,73.48
2023-01-04T20:31:52.306Z,73.55
2023-01-04T20:34:39.317Z,73.62
2023-01-04T20:37:26.044Z,73.25
2023-01-04T20:40:12.733Z,73.03
2023-01-04T20:43:18.252Z,73.10
2023-01-04T20:46:10.726Z,73.23
2023-01-04T20:48:57.574Z,73.16
2023-01-04T20:51:43.990Z,73.03
2023-01-04T20:54:30.847Z,73.25
2023-01-04T20:57:17.706Z,73.03
2023-01-04T21:00:05.631Z,73.35
2023-01-04T21:02:52.502Z,73.45
2023-01-04T21:05:40.970Z,73.11
2023-01-04T21:08:27.405Z,72.98
2023-01-04T21:11:15.022Z,73.04
2023-01-04T21:14:02.787Z,72.83
2023-01-04T21:16:49.111Z,73.03
2023-01-04T21:19:35.762Z,72.92
2023-01-04T21:22:23.931Z,72.83
2023-01-04T21:25:10.700Z,73.42
2023-01-04T21:28:00.687Z,72.81
2023-01-04T21:30:48.476Z,72.96
2023-01-04T21:33:35.138Z,73.09
2023-01-04T21:36:24.843Z,73.49
2023-01-04T21:39:11.379Z,73.44
2023-01-04T21:41:57.966Z,73.77
2023-01-04T21:44:44.704Z,73.91
2023-01-04T21:47:31.768Z,73.87
2023-01-04T21:50:18.539Z,74.02
2023-01-04T21:53:05.452Z,74.26
2023-01-04T21:56:10.538Z,74.07
2023-01-04T21:58:57.251Z,74.29
2023-01-04T22:01:43.839Z,74.07
2023-01-04T22:04:31.545Z,73.96
2023-01-04T22:07:18.165Z,73.86
2023-01-04T22:10:05.625Z,73.65
2023-01-04T22:12:51.825Z,73.31
2023-01-04T22:15:40.134Z,73.32
2023-01-04T22:18:26.982Z,73.13
2023-01-04T22:21:15.400Z,73.22
2023-01-04T22:24:02.002Z,73.08
2023-01-04T22:26:50.770Z,73.32
2023-01-04T22:29:38.564Z,72.88
2023-01-04T22:32:25.088Z,73.11
2023-01-04T22:35:11.522Z,72.81
2023-01-04T22:37:57.954Z,72.59
2023-01-04T22:40:45.092Z,72.71
2023-01-04T22:43:31.517Z,72.76
2023-01-04T22:46:18.431Z,72.40
2023-01-04T22:49:05.238Z,72.45
2023-01-04T22:51:55.873Z,72.34
2023-01-04T22:54:42.259Z,72.40
2023-01-04T22:57:28.567Z,72.39
2023-01-04T23:00:15.744Z,72.24
2023-01-04T23:03:02.754Z,72.15
2023-01-04T23:05:49.727Z,72.06
2023-01-04T23:08:38.647Z,71.98
2023-01-04T23:11:26.411Z,71.72
2023-01-04T23:14:15.519Z,72.36
2023-01-04T23:17:02.565Z,72.62
2023-01-04T23:19:48.983Z,73.10
2023-01-04T23:22:35.573Z,73.10
2023-01-04T23:25:22.538Z,73.08
2023-01-04T23:28:08.876Z,73.10
2023-01-04T23:30:55.558Z,73.02
2023-01-04T23:33:42.541Z,72.81
2023-01-04T23:36:31.415Z,72.79
2023-01-04T23:39:17.966Z,72.65
2023-01-04T23:42:04.765Z,71.95
2023-01-04T23:44:51.607Z,71.76
2023-01-04T23:47:38.423Z,72.36
2023-01-04T23:50:25.077Z,72.61
2023-01-04T23:53:11.762Z,72.73
2023-01-04T23:56:02.112Z,72.54
2023-01-04T23:58:48.735Z,72.39
